Accueil
METAR-TAF:

METAR-TAF

Aéroports :

Aéroport de Trapani

Trapani, Italie

latitude: 37-55N, longitude: 012-30E, altitude: 7 m

Observation

Le bulletin a été fait il y a 44 minutes, à 05:55 UTC
Vent 4 kt de sud-est
Température 6°C
Humidité 93%
Pression 1023 hPa
Visibilité 10 km ou plus
Quelques nuages à une hauteur de 1700 ft

METAR: LICT 190555Z 13004KT 9999 FEW017 06/05 Q1023 RMK SCT SCT200 VIS MIN 9999 WIND THR13 10005KT BLU

Heure: 07:39 (06:39 UTC)

Prévision

Le bulletin a été fait il y a 1 heure et 39 minutes, à 05:00 UTC
Prévision valable du 19 à 06 UTC au 19 à 15 UTC
Vent 5 kt de est/sud-est
Visibilité 10 km ou plus
Quelques nuages à une hauteur de 1000 ft
Nuages épars à une hauteur de 2000 ft
Evoluant progressivement
du 19 à 11 UTC au 19 à 13 UTC
Vent 10 kt de nord-ouest

TAF: LICT 190500Z 1906/1915 12005KT 9999 FEW010 SCT020 BECMG 1911/1913 31010KT

Observations et prévisions météorologiques de plus de 4000 aéroports (messages METAR et TAF).

Les stations disponibles sont représentées par des disques jaunes et rouges sur la carte.

Passer la souris dessus pour voir le nom de la station.

Cliquer dessus pour voir les observations et prévisions météorologiques.

Pour changer de carte: cliquez sur les boutons verts avec une croix noire pour zoomer, sur le bouton vert avec un tiret pour effectuer un zoom arrière, ou sur les flèches vertes pour les cartes adjacentes.


METAR-TAF: